Time;durP1;ratioP1;P1;durP2;ratioP2;P2;SDS_P1;SDS_P2;PMS_P1;PMS_P2;Temp;Humidity;BMP_temperature;BMP_pressure;BME280_temperature;BME280_humidity;BME280_pressure;Samples;Min_cycle;Max_cycle;Signal;HPM_P1;HPM_P2
2023/05/08 00:00:24;;;;;;;12.88;11.15;;;;;;;;;;5112694;27;20058;-58
2023/05/08 00:02:50;;;;;;;13.63;11.23;;;;;;;;;;5104045;27;20047;-58
2023/05/08 00:05:16;;;;;;;13.48;11.48;;;;;;;;;;5105188;27;20420;-58
2023/05/08 00:07:42;;;;;;;13.65;10.15;;;;;;;;;;5106985;27;20412;-59
2023/05/08 00:10:09;;;;;;;12.85;10.82;;;;;;;;;;5097496;27;20035;-59
2023/05/08 00:12:36;;;;;;;11.23;9.65;;;;;;;;;;5110862;27;20204;-59
2023/05/08 00:15:02;;;;;;;13.10;10.18;;;;;;;;;;5109717;27;20510;-59
2023/05/08 00:17:29;;;;;;;11.80;10.48;;;;;;;;;;5116141;27;20055;-59
2023/05/08 00:19:55;;;;;;;15.07;10.93;;;;;;;;;;5105994;27;20057;-59
2023/05/08 00:22:21;;;;;;;13.00;9.95;;;;;;;;;;5115605;27;20503;-59
2023/05/08 00:24:48;;;;;;;11.65;10.18;;;;;;;;;;5110796;27;20121;-59
2023/05/08 00:27:14;;;;;;;12.20;10.88;;;;;;;;;;5113253;27;20047;-59
2023/05/08 00:29:40;;;;;;;13.10;11.63;;;;;;;;;;5115833;27;20358;-58
2023/05/08 00:32:07;;;;;;;16.83;10.90;;;;;;;;;;5111384;27;20507;-59
2023/05/08 00:34:33;;;;;;;11.77;10.32;;;;;;;;;;5114234;27;20062;-59
2023/05/08 00:36:59;;;;;;;12.15;10.32;;;;;;;;;;5117656;27;20035;-59
2023/05/08 00:39:25;;;;;;;13.55;10.55;;;;;;;;;;5106988;27;20043;-59
2023/05/08 00:41:51;;;;;;;13.25;9.65;;;;;;;;;;5090998;27;20047;-59
2023/05/08 00:44:17;;;;;;;14.30;10.98;;;;;;;;;;5101537;27;20043;-59
2023/05/08 00:46:44;;;;;;;16.08;11.73;;;;;;;;;;5123351;27;20074;-59
2023/05/08 00:49:13;;;;;;;14.68;11.00;;;;;;;;;;5109129;27;20126;-59
2023/05/08 00:51:43;;;;;;;13.77;10.90;;;;;;;;;;5101353;27;20101;-59
2023/05/08 00:54:09;;;;;;;13.05;10.63;;;;;;;;;;5108431;27;20459;-59
2023/05/08 00:56:37;;;;;;;11.90;9.95;;;;;;;;;;5108614;27;20061;-58
2023/05/08 00:59:03;;;;;;;12.07;9.77;;;;;;;;;;5111165;27;20086;-59
2023/05/08 01:01:29;;;;;;;14.05;11.45;;;;;;;;;;5110958;27;20039;-59
2023/05/08 01:03:56;;;;;;;12.63;10.43;;;;;;;;;;5100687;27;20411;-59
2023/05/08 01:06:23;;;;;;;12.98;10.57;;;;;;;;;;5099456;27;20050;-59
2023/05/08 01:08:49;;;;;;;13.35;10.77;;;;;;;;;;5114046;27;20051;-59
2023/05/08 01:11:28;;;;;;;15.48;11.15;;;;;;;;;;5114511;27;20122;-59
2023/05/08 01:14:06;;;;;;;16.35;11.50;;;;;;;;;;5110464;27;20255;-59
2023/05/08 01:16:32;;;;;;;13.77;11.60;;;;;;;;;;5101169;27;20125;-59
2023/05/08 01:19:25;;;;;;;13.80;11.20;;;;;;;;;;5113091;27;20489;-59
2023/05/08 01:22:08;;;;;;;14.30;10.10;;;;;;;;;;5113712;27;20354;-59
2023/05/08 01:24:47;;;;;;;16.67;12.25;;;;;;;;;;5104013;27;20492;-59
2023/05/08 01:27:24;;;;;;;14.18;11.10;;;;;;;;;;5114450;27;20512;-58
2023/05/08 01:30:08;;;;;;;13.65;10.80;;;;;;;;;;5108639;27;20106;-59
2023/05/08 01:32:36;;;;;;;13.32;11.18;;;;;;;;;;5103542;27;20044;-59
2023/05/08 01:35:21;;;;;;;13.43;10.88;;;;;;;;;;5086108;28;20039;-59
2023/05/08 01:38:06;;;;;;;12.77;10.70;;;;;;;;;;5111359;27;20039;-59
2023/05/08 01:40:40;;;;;;;13.95;11.43;;;;;;;;;;5105893;27;20044;-59
2023/05/08 01:43:16;;;;;;;14.60;10.77;;;;;;;;;;5101689;27;20039;-59
2023/05/08 01:45:45;;;;;;;13.80;11.98;;;;;;;;;;5098590;27;20472;-58
2023/05/08 01:48:13;;;;;;;13.52;11.02;;;;;;;;;;5100224;27;20362;-58
2023/05/08 01:50:42;;;;;;;17.33;11.52;;;;;;;;;;5098830;27;20032;-58
2023/05/08 01:53:11;;;;;;;16.42;12.32;;;;;;;;;;5084840;27;20047;-59
2023/05/08 01:55:39;;;;;;;16.30;13.10;;;;;;;;;;5101945;27;20047;-58
2023/05/08 01:58:08;;;;;;;15.93;11.48;;;;;;;;;;5105444;27;20035;-59
2023/05/08 02:00:34;;;;;;;14.05;12.02;;;;;;;;;;5103883;27;20130;-58
2023/05/08 02:03:01;;;;;;;14.07;11.32;;;;;;;;;;5104831;27;20036;-59
2023/05/08 02:05:28;;;;;;;16.48;13.07;;;;;;;;;;5107550;27;20059;-59
2023/05/08 02:07:55;;;;;;;17.25;13.05;;;15.10;99.90;;;;;;5095486;27;20119;-59
2023/05/08 02:10:22;;;;;;;16.80;12.20;;;;;;;;;;5099454;27;20044;-59
2023/05/08 02:12:48;;;;;;;15.13;12.82;;;;;;;;;;5082632;27;20082;-58
2023/05/08 02:15:15;;;;;;;14.85;12.32;;;;;;;;;;5102045;27;20126;-59
2023/05/08 02:17:43;;;;;;;17.48;13.23;;;;;;;;;;5102726;27;20043;-59
2023/05/08 02:20:13;;;;;;;17.25;13.00;;;12.50;99.90;;;;;;5102913;27;20437;-58
2023/05/08 02:22:44;;;;;;;15.77;13.50;;;12.30;99.90;;;;;;5103303;27;20055;-59
2023/05/08 02:25:13;;;;;;;14.75;11.65;;;12.30;99.90;;;;;;5101299;27;20035;-59
2023/05/08 02:27:42;;;;;;;15.90;12.02;;;12.30;99.90;;;;;;5098782;27;20032;-59
2023/05/08 02:30:13;;;;;;;17.00;12.63;;;12.30;99.90;;;;;;5100783;27;20089;-58
2023/05/08 02:32:43;;;;;;;16.10;12.68;;;12.20;99.90;;;;;;5102680;27;20040;-59
2023/05/08 02:35:12;;;;;;;16.58;13.15;;;;;;;;;;5100545;27;20066;-59
2023/05/08 02:37:38;;;;;;;15.85;13.02;;;;;;;;;;5102314;27;20516;-58
2023/05/08 02:40:06;;;;;;;15.68;13.00;;;;;;;;;;5101249;27;20031;-59
2023/05/08 02:42:32;;;;;;;15.32;12.45;;;;;;;;;;5103921;27;20031;-59
2023/05/08 02:44:58;;;;;;;22.30;15.18;;;;;;;;;;5100118;27;20036;-58
2023/05/08 02:47:33;;;;;;;18.15;12.73;;;;;;;;;;5097772;28;20048;-58
2023/05/08 02:50:03;;;;;;;16.83;13.52;;;;;;;;;;5096600;27;20035;-59
2023/05/08 02:52:40;;;;;;;17.67;13.73;;;;;;;;;;5109578;27;20039;-59
2023/05/08 02:55:09;;;;;;;17.20;13.40;;;;;;;;;;5097621;27;20050;-59
2023/05/08 02:57:36;;;;;;;16.83;12.55;;;;;;;;;;5098226;28;20040;-58
2023/05/08 03:00:13;;;;;;;16.55;12.80;;;;;;;;;;5103765;27;20031;-59
2023/05/08 03:02:48;;;;;;;17.15;13.43;;;;;;;;;;5084058;28;20083;-58
2023/05/08 03:05:17;;;;;;;20.13;14.90;;;;;;;;;;5103136;27;20089;-59
2023/05/08 03:07:44;;;;;;;18.13;13.40;;;;;;;;;;5097254;28;20044;-59
2023/05/08 03:10:15;;;;;;;20.83;13.38;;;;;;;;;;5100352;28;20937;-59
2023/05/08 03:12:46;;;;;;;18.48;13.38;;;;;;;;;;5098998;28;20488;-59
2023/05/08 03:15:25;;;;;;;16.25;12.13;;;;;;;;;;5101302;28;20477;-59
2023/05/08 03:17:53;;;;;;;19.00;14.57;;;;;;;;;;5104319;28;20186;-58
2023/05/08 03:20:19;;;;;;;18.45;13.90;;;;;;;;;;5099466;28;20038;-58
2023/05/08 03:22:47;;;;;;;18.33;14.55;;;;;;;;;;5099655;28;20111;-58
2023/05/08 03:25:15;;;;;;;16.42;13.15;;;;;;;;;;5099598;28;20047;-59
2023/05/08 03:27:41;;;;;;;16.42;13.75;;;;;;;;;;5095698;28;20039;-59
2023/05/08 03:30:08;;;;;;;17.73;13.50;;;;;;;;;;5100928;28;20089;-60
2023/05/08 03:32:34;;;;;;;15.05;12.82;;;;;;;;;;5100514;28;20398;-59
2023/05/08 03:35:01;;;;;;;18.15;12.63;;;;;;;;;;5098152;28;20043;-59
2023/05/08 03:37:28;;;;;;;15.85;13.15;;;;;;;;;;5105731;28;20036;-59
2023/05/08 03:39:55;;;;;;;21.90;14.02;;;;;;;;;;5096982;28;20034;-58
2023/05/08 03:42:22;;;;;;;20.98;13.40;;;;;;;;;;5098131;28;20036;-59
2023/05/08 03:44:52;;;;;;;16.88;12.85;;;;;;;;;;5099249;28;20051;-59
2023/05/08 03:47:19;;;;;;;15.40;12.20;;;;;;;;;;5096461;28;20558;-58
2023/05/08 03:49:46;;;;;;;15.60;12.95;;;;;;;;;;5097011;28;20051;-59
2023/05/08 03:52:15;;;;;;;17.30;14.00;;;;;;;;;;5097766;28;20145;-59
2023/05/08 03:54:42;;;;;;;16.02;13.30;;;;;;;;;;5099052;28;20447;-59
2023/05/08 03:57:08;;;;;;;18.63;13.00;;;;;;;;;;5095764;28;20036;-59
2023/05/08 03:59:53;;;;;;;15.85;12.70;;;;;;;;;;5098892;28;20071;-59
2023/05/08 04:02:23;;;;;;;17.73;12.57;;;;;;;;;;5102264;28;20039;-60
2023/05/08 04:04:52;;;;;;;18.45;14.45;;;;;;;;;;5095636;28;20044;-59
2023/05/08 04:07:21;;;;;;;17.30;13.48;;;;;;;;;;5097575;28;20059;-59
2023/05/08 04:10:06;;;;;;;17.45;13.48;;;;;;;;;;5097166;28;20055;-59
2023/05/08 04:13:01;;;;;;;19.55;14.70;;;;;;;;;;5103240;28;20035;-58
2023/05/08 04:15:29;;;;;;;18.13;13.35;;;;;;;;;;5092454;27;20059;-58
2023/05/08 04:17:58;;;;;;;17.40;13.10;;;;;;;;;;5095743;27;20432;-58
2023/05/08 04:20:26;;;;;;;16.35;13.07;;;;;;;;;;5110391;27;20049;-59
2023/05/08 04:22:53;;;;;;;16.70;12.88;;;;;;;;;;5100323;27;20530;-59
2023/05/08 04:25:20;;;;;;;17.25;13.27;;;;;;;;;;5098017;27;20130;-60
2023/05/08 04:27:49;;;;;;;17.33;12.85;;;;;;;;;;5108922;27;20046;-59
2023/05/08 04:30:16;;;;;;;16.25;12.65;;;;;;;;;;5104206;27;20046;-59
2023/05/08 04:32:42;;;;;;;18.73;13.45;;;;;;;;;;5099317;27;20046;-59
2023/05/08 04:35:08;;;;;;;16.63;12.68;;;;;;;;;;5101937;27;20331;-59
2023/05/08 04:37:35;;;;;;;15.90;13.70;;;;;;;;;;5104886;27;20036;-59
2023/05/08 04:40:04;;;;;;;15.43;12.73;;;;;;;;;;5102916;27;20159;-59
2023/05/08 04:42:30;;;;;;;17.00;13.82;;;;;;;;;;5089108;27;20394;-60
2023/05/08 04:44:56;;;;;;;17.40;13.73;;;12.20;99.90;;;;;;5103948;27;20038;-59
2023/05/08 04:47:22;;;;;;;18.08;13.45;;;11.40;99.90;;;;;;5102398;27;20032;-60
2023/05/08 04:49:50;;;;;;;15.20;12.38;;;11.40;99.90;;;;;;5099786;27;20412;-60
2023/05/08 04:52:15;;;;;;;16.52;13.07;;;11.40;99.90;;;;;;5074257;27;20046;-59
2023/05/08 04:54:41;;;;;;;18.50;14.15;;;11.40;99.90;;;;;;5050029;28;20118;-59
2023/05/08 04:57:07;;;;;;;19.15;14.40;;;;;;;;;;5101243;27;20044;-59
2023/05/08 04:59:34;;;;;;;15.65;11.48;;;;;;;;;;5110353;27;20043;-59
2023/05/08 05:02:05;;;;;;;17.35;13.23;;;;;;;;;;5101530;27;20493;-59
2023/05/08 05:04:31;;;;;;;19.92;12.35;;;;;;;;;;5106372;27;20489;-59
2023/05/08 05:06:57;;;;;;;15.25;13.30;;;;;;;;;;5108257;27;20083;-59
2023/05/08 05:09:24;;;;;;;16.75;14.15;;;;;;;;;;5101032;27;20051;-58
2023/05/08 05:11:51;;;;;;;20.00;13.25;;;;;;;;;;5103320;27;20036;-59
2023/05/08 05:14:17;;;;;;;16.13;12.30;;;;;;;;;;5095194;27;20054;-59
2023/05/08 05:16:43;;;;;;;18.02;13.75;;;;;;;;;;5104130;27;20046;-59
2023/05/08 05:19:09;;;;;;;16.42;13.30;;;;;;;;;;5112496;27;20126;-59
2023/05/08 05:21:36;;;;;;;16.80;12.32;;;;;;;;;;5108493;27;20036;-59
2023/05/08 05:24:03;;;;;;;16.02;12.98;;;;;;;;;;5089826;27;20064;-58
2023/05/08 05:26:29;;;;;;;18.88;12.40;;;;;;;;;;5092111;27;20058;-58
2023/05/08 05:28:55;;;;;;;17.15;13.38;;;;;;;;;;5081845;28;20071;-59
2023/05/08 05:31:21;;;;;;;16.92;12.77;;;;;;;;;;5112359;27;20048;-59
2023/05/08 05:33:48;;;;;;;17.10;13.82;;;;;;;;;;5101998;27;20043;-59
2023/05/08 05:36:14;;;;;;;16.73;12.73;;;;;;;;;;5108390;27;20455;-59
2023/05/08 05:38:40;;;;;;;17.02;13.18;;;;;;;;;;5099406;27;20031;-59
2023/05/08 05:41:06;;;;;;;17.00;12.57;;;;;;;;;;5102532;27;20036;-59
2023/05/08 05:43:32;;;;;;;17.20;13.82;;;;;;;;;;5105495;27;20035;-59
2023/05/08 05:46:05;;;;;;;18.30;13.13;;;;;;;;;;5107580;27;20043;-59
2023/05/08 05:48:31;;;;;;;14.52;12.20;;;;;;;;;;5100145;27;20036;-59
2023/05/08 05:50:58;;;;;;;17.02;13.15;;;;;;;;;;5081798;28;20281;-58
2023/05/08 05:53:24;;;;;;;13.90;11.85;;;;;;;;;;5095474;27;20061;-59
2023/05/08 05:55:50;;;;;;;16.15;11.88;;;;;;;;;;5099751;27;20043;-59
2023/05/08 05:58:16;;;;;;;17.58;12.43;;;;;;;;;;5099090;27;20073;-59
2023/05/08 06:00:43;;;;;;;17.60;13.82;;;;;;;;;;5101502;27;20103;-59
2023/05/08 06:03:09;;;;;;;15.18;11.60;;;;;;;;;;5115625;27;20035;-59
2023/05/08 06:05:36;;;;;;;16.80;12.32;;;;;;;;;;5101611;27;20060;-58
2023/05/08 06:08:02;;;;;;;14.65;11.55;;;;;;;;;;5107120;27;20046;-58
2023/05/08 06:10:28;;;;;;;16.40;12.32;;;;;;;;;;5112557;27;20044;-60
2023/05/08 06:12:55;;;;;;;24.88;12.55;;;;;;;;;;5101836;27;20506;-58
2023/05/08 06:15:22;;;;;;;15.02;11.63;;;;;;;;;;5108109;27;20046;-59
2023/05/08 06:17:48;;;;;;;14.95;12.93;;;;;;;;;;5107751;27;20765;-59
2023/05/08 06:20:14;;;;;;;16.27;11.70;;;;;;;;;;5106260;27;20043;-59
2023/05/08 06:22:41;;;;;;;15.45;12.18;;;;;;;;;;5112634;27;20032;-59
2023/05/08 06:25:08;;;;;;;18.25;11.93;;;;;;;;;;5108943;27;20039;-59
2023/05/08 06:27:34;;;;;;;14.70;11.48;;;;;;;;;;5101037;27;20043;-59
2023/05/08 06:30:01;;;;;;;14.88;12.10;;;;;;;;;;5105403;27;20928;-59
2023/05/08 06:32:27;;;;;;;14.43;11.70;;;;;;;;;;5112893;27;20354;-59
2023/05/08 06:34:53;;;;;;;15.55;11.48;;;;;;;;;;5112277;27;20050;-58
2023/05/08 06:37:19;;;;;;;15.07;12.02;;;;;;;;;;5112618;27;20053;-59
2023/05/08 06:39:45;;;;;;;14.23;11.98;;;;;;;;;;5108610;27;20032;-58
2023/05/08 06:42:12;;;;;;;16.38;11.82;;;;;;;;;;5112622;27;20039;-58
2023/05/08 06:44:39;;;;;;;18.23;13.35;;;;;;;;;;5100734;27;20464;-59
2023/05/08 06:47:05;;;;;;;13.65;11.88;;;;;;;;;;5112796;27;20122;-58
2023/05/08 06:49:32;;;;;;;17.77;12.90;;;;;;;;;;5112386;27;20557;-59
2023/05/08 06:51:58;;;;;;;16.92;12.52;;;;;;;;;;5104780;27;20055;-58
2023/05/08 06:54:24;;;;;;;16.17;11.95;;;;;;;;;;5114780;27;20125;-58
2023/05/08 06:56:52;;;;;;;15.98;10.70;;;;;;;;;;5099823;27;20044;-58
2023/05/08 06:59:18;;;;;;;14.52;11.38;;;;;;;;;;5105298;27;20032;-59
2023/05/08 07:01:45;;;;;;;15.90;10.98;;;;;;;;;;5109731;27;20086;-59
2023/05/08 07:04:11;;;;;;;15.40;11.75;;;;;;;;;;5109284;27;20411;-58
2023/05/08 07:06:37;;;;;;;15.30;12.25;;;;;;;;;;5103738;27;20047;-58
2023/05/08 07:09:03;;;;;;;16.77;11.98;;;;;;;;;;5110071;27;20076;-59
2023/05/08 07:11:29;;;;;;;14.30;12.00;;;;;;;;;;5104846;28;20473;-58
2023/05/08 07:13:56;;;;;;;14.70;12.40;;;;;;;;;;5110206;27;20066;-59
2023/05/08 07:16:22;;;;;;;16.77;12.80;;;;;;;;;;5099425;27;20074;-59
2023/05/08 07:18:48;;;;;;;14.30;11.73;;;;;;;;;;5097521;28;20505;-58
2023/05/08 07:21:16;;;;;;;14.32;12.38;;;;;;;;;;5101297;28;20118;-59
2023/05/08 07:23:43;;;;;;;18.23;12.50;;;;;;;;;;5105765;28;20146;-59
2023/05/08 07:26:10;;;;;;;14.35;11.85;;;;;;;;;;5103817;28;20078;-59
2023/05/08 07:28:36;;;;;;;16.42;12.77;;;;;;;;;;5101149;28;20546;-59
2023/05/08 07:31:08;;;;;;;14.90;13.10;;;;;;;;;;5092324;28;20036;-59
2023/05/08 07:33:34;;;;;;;14.75;11.80;;;;;;;;;;5107685;28;20131;-59
2023/05/08 07:36:00;;;;;;;16.83;13.00;;;;;;;;;;5105421;28;20136;-59
2023/05/08 07:38:26;;;;;;;14.40;11.65;;;;;;;;;;5098473;28;20501;-59
2023/05/08 07:40:55;;;;;;;14.68;12.30;;;;;;;;;;5110237;28;20031;-58
2023/05/08 07:43:22;;;;;;;17.08;12.55;;;;;;;;;;5105943;28;20036;-59
2023/05/08 07:45:48;;;;;;;14.90;11.73;;;;;;;;;;5100789;27;20497;-58
2023/05/08 07:48:14;;;;;;;15.18;11.40;;;;;;;;;;5107844;28;20040;-59
2023/05/08 07:50:40;;;;;;;13.55;12.07;;;;;;;;;;5107181;27;20131;-59
2023/05/08 07:53:06;;;;;;;16.08;12.18;;;;;;;;;;5105889;27;20127;-58
2023/05/08 07:55:33;;;;;;;15.98;12.43;;;;;;;;;;5102432;27;20028;-59
2023/05/08 07:57:59;;;;;;;18.17;13.68;;;;;;;;;;5096906;27;20397;-59
2023/05/08 08:00:28;;;;;;;14.02;11.45;;;;;;;;;;5109090;27;20032;-59
2023/05/08 08:02:54;;;;;;;14.15;11.45;;;;;;;;;;5102067;27;20051;-59
2023/05/08 08:05:20;;;;;;;15.82;11.65;;;;;;;;;;5104881;27;20059;-59
2023/05/08 08:07:47;;;;;;;14.98;12.00;;;;;;;;;;5112276;27;20054;-58
2023/05/08 08:10:13;;;;;;;16.38;12.60;;;;;;;;;;5104987;27;20069;-59
2023/05/08 08:12:39;;;;;;;20.13;12.57;;;;;;;;;;5100911;27;20044;-59
2023/05/08 08:15:05;;;;;;;15.25;11.82;;;;;;;;;;5105751;27;20043;-59
2023/05/08 08:17:32;;;;;;;13.48;11.55;;;;;;;;;;5100801;27;20062;-59
2023/05/08 08:19:58;;;;;;;15.88;12.48;;;;;;;;;;5101865;27;20048;-59
2023/05/08 08:22:25;;;;;;;14.32;11.73;;;;;;;;;;5102605;27;20092;-58
2023/05/08 08:24:51;;;;;;;15.35;12.85;;;;;;;;;;5096958;27;20077;-58
2023/05/08 08:27:17;;;;;;;16.70;12.55;;;;;;;;;;5101089;27;20105;-59
2023/05/08 08:29:44;;;;;;;15.68;12.45;;;;;;;;;;5104415;27;20067;-59
2023/05/08 08:32:10;;;;;;;15.57;13.07;;;;;;;;;;5102150;27;20032;-59
2023/05/08 08:34:36;;;;;;;16.70;12.00;;;;;;;;;;5101277;27;20039;-59
2023/05/08 08:37:04;;;;;;;16.08;13.60;;;;;;;;;;5106204;27;20184;-59
2023/05/08 08:39:34;;;;;;;14.45;11.85;;;;;;;;;;5101977;27;20560;-59
2023/05/08 08:42:00;;;;;;;13.75;12.32;;;;;;;;;;5100208;27;20126;-58
2023/05/08 08:44:26;;;;;;;16.60;12.68;;;;;;;;;;5113293;27;20099;-59
2023/05/08 08:46:53;;;;;;;15.52;12.60;;;;;;;;;;5096422;27;20139;-58
2023/05/08 08:49:29;;;;;;;15.38;12.05;;;;;;;;;;5097755;27;20422;-59
2023/05/08 08:51:58;;;;;;;14.88;13.15;;;;;;;;;;5103509;27;20086;-59
2023/05/08 08:54:27;;;;;;;17.25;13.15;;;;;;;;;;5100034;27;20062;-59
2023/05/08 08:56:55;;;;;;;17.98;12.80;;;;;;;;;;5103524;27;20047;-59
2023/05/08 08:59:23;;;;;;;15.07;12.40;;;;;;;;;;5098070;27;20084;-59
2023/05/08 09:01:53;;;;;;;18.45;12.80;;;;;;;;;;5102486;28;20047;-60
2023/05/08 09:04:19;;;;;;;16.77;13.55;;;;;;;;;;5109304;27;20588;-59
2023/05/08 09:06:45;;;;;;;13.98;11.70;;;;;;;;;;5099662;27;20314;-59
2023/05/08 09:09:12;;;;;;;18.90;13.75;;;;;;;;;;5104295;27;20035;-59
2023/05/08 09:11:40;;;;;;;18.45;14.48;;;;;;;;;;5097582;27;20082;-59
2023/05/08 09:14:07;;;;;;;17.58;13.73;;;;;;;;;;5109904;27;20046;-59
2023/05/08 09:16:33;;;;;;;19.80;15.75;;;;;;;;;;5099613;27;20044;-59
2023/05/08 09:19:00;;;;;;;18.63;14.95;;;;;;;;;;5105210;27;20667;-59
2023/05/08 09:21:27;;;;;;;16.92;14.18;;;;;;;;;;5100616;27;20036;-59
2023/05/08 09:23:57;;;;;;;20.70;14.77;;;;;;;;;;5103720;27;20055;-59
2023/05/08 09:26:31;;;;;;;18.05;14.45;;;;;;;;;;5104165;27;20031;-59
2023/05/08 09:29:14;;;;;;;17.65;13.95;;;;;;;;;;5112047;27;20046;-59
2023/05/08 09:31:45;;;;;;;18.45;14.43;;;;;;;;;;5107174;27;20580;-59
2023/05/08 09:34:23;;;;;;;18.13;14.48;;;;;;;;;;5102646;27;20445;-59
2023/05/08 09:36:49;;;;;;;19.30;15.48;;;;;;;;;;5098225;27;20208;-59
2023/05/08 09:39:21;;;;;;;21.23;16.45;;;;;;;;;;5098377;27;20115;-59
2023/05/08 09:41:57;;;;;;;20.60;15.10;;;;;;;;;;5102936;27;20108;-59
2023/05/08 09:44:23;;;;;;;20.75;15.38;;;;;;;;;;5101421;27;20062;-59
2023/05/08 09:46:49;;;;;;;17.85;15.90;;;;;;;;;;5099609;27;20036;-59
2023/05/08 09:49:18;;;;;;;19.73;15.68;;;;;;;;;;5105437;27;20032;-59
2023/05/08 09:51:52;;;;;;;20.27;16.13;;;;;;;;;;5095948;27;20040;-60
2023/05/08 09:54:19;;;;;;;18.60;15.90;;;;;;;;;;5101235;27;20074;-59
2023/05/08 09:56:45;;;;;;;22.60;15.70;;;;;;;;;;5098060;27;20516;-59
2023/05/08 09:59:27;;;;;;;21.98;16.38;;;;;;;;;;5110287;27;20039;-59
2023/05/08 10:01:54;;;;;;;19.08;16.95;;;11.40;99.90;;;;;;5107032;27;20043;-59
2023/05/08 10:04:34;;;;;;;20.42;17.23;;;;;;;;;;5099846;27;20369;-59
2023/05/08 10:07:00;;;;;;;20.13;16.48;;;;;;;;;;5099846;27;20063;-59
2023/05/08 10:09:26;;;;;;;22.70;17.15;;;;;;;;;;5100024;27;20031;-60
2023/05/08 10:11:54;;;;;;;21.70;16.63;;;;;;;;;;5102140;28;20031;-59
2023/05/08 10:14:21;;;;;;;16.70;14.90;;;;;;;;;;5098684;27;20040;-59
2023/05/08 10:16:48;;;;;;;19.98;16.77;;;;;;;;;;5104837;27;20050;-59
2023/05/08 10:19:15;;;;;;;19.75;16.40;;;;;;;;;;5110098;27;20027;-60
2023/05/08 10:21:45;;;;;;;23.73;17.65;;;16.80;99.90;;;;;;5091685;27;20607;-62
2023/05/08 10:24:15;;;;;;;21.35;16.63;;;;;;;;;;5097689;27;20318;-71
2023/05/08 10:26:43;;;;;;;19.60;16.30;;;;;;;;;;5096711;27;20092;-71
2023/05/08 10:29:13;;;;;;;18.40;15.18;;;;;;;;;;5096292;27;20504;-72
2023/05/08 10:31:42;;;;;;;23.25;17.67;;;;;;;;;;5101985;27;20145;-71
2023/05/08 10:34:16;;;;;;;21.35;17.10;;;17.40;99.90;;;;;;5099439;27;20043;-71
2023/05/08 10:36:42;;;;;;;21.38;15.40;;;;;;;;;;5098201;27;20563;-71
2023/05/08 10:39:08;;;;;;;22.60;18.17;;;;;;;;;;5099323;27;20132;-72
2023/05/08 10:41:35;;;;;;;21.02;16.08;;;;;;;;;;5097316;27;20039;-72
2023/05/08 10:44:02;;;;;;;18.23;15.98;;;;;;;;;;5081765;28;20040;-70
2023/05/08 10:46:33;;;;;;;19.35;16.48;;;;;;;;;;5103149;27;20039;-70
2023/05/08 10:49:06;;;;;;;20.20;16.45;;;;;;;;;;5102659;27;20031;-69
2023/05/08 10:51:37;;;;;;;20.40;16.75;;;;;;;;;;5101659;28;20044;-70
2023/05/08 10:54:23;;;;;;;20.25;16.75;;;;;;;;;;5101070;28;20066;-70
2023/05/08 10:56:49;;;;;;;19.83;17.55;;;;;;;;;;5094222;28;20483;-69
2023/05/08 10:59:18;;;;;;;19.95;15.73;;;;;;;;;;5098696;27;20042;-70
2023/05/08 11:01:48;;;;;;;19.35;16.30;;;;;;;;;;5100714;27;20592;-69
2023/05/08 11:04:21;;;;;;;19.60;14.52;;;;;;;;;;5100119;27;20524;-70
2023/05/08 11:06:51;;;;;;;20.80;16.83;;;;;;;;;;5102323;27;20044;-71
2023/05/08 11:09:22;;;;;;;19.35;15.10;;;;;;;;;;5097238;27;20497;-71
2023/05/08 11:11:59;;;;;;;20.60;15.77;;;;;;;;;;5095802;27;20040;-71
2023/05/08 11:14:26;;;;;;;21.25;15.77;;;17.80;99.90;;;;;;5095510;27;20044;-71
2023/05/08 11:16:52;;;;;;;17.75;14.45;;;;;;;;;;5098613;28;20039;-71
2023/05/08 11:19:19;;;;;;;19.00;14.77;;;;;;;;;;5096883;27;20477;-71
2023/05/08 11:22:04;;;;;;;16.98;14.88;;;;;;;;;;5100612;28;20043;-71
2023/05/08 11:24:37;;;;;;;17.15;15.25;;;;;;;;;;5096665;28;20040;-71
2023/05/08 11:27:06;;;;;;;;;;;;;;;;;;5099332;28;20119;-70
2023/05/08 11:29:33;;;;;;;20.73;15.30;;;;;;;;;;5099789;28;19931;-71
2023/05/08 11:31:59;;;;;;;16.55;14.48;;;;;;;;;;5102538;28;20043;-70
2023/05/08 11:34:44;;;;;;;21.38;15.82;;;;;;;;;;5098677;28;20452;-71
2023/05/08 11:37:11;;;;;;;20.42;15.25;;;;;;;;;;5096557;28;20051;-71
2023/05/08 11:39:37;;;;;;;20.23;14.88;;;;;;;;;;5102534;27;20081;-70
2023/05/08 11:42:32;;;;;;;19.48;15.85;;;;;;;;;;5096145;28;20056;-71
2023/05/08 11:45:06;;;;;;;18.90;14.50;;;;;;;;;;5088055;27;20036;-71
2023/05/08 11:47:40;;;;;;;18.95;15.48;;;;;;;;;;5093171;28;20048;-70
2023/05/08 11:50:10;;;;;;;20.45;15.38;;;;;;;;;;5098005;28;20678;-71
2023/05/08 11:52:38;;;;;;;19.02;15.82;;;;;;;;;;5097545;28;20040;-71
2023/05/08 11:55:08;;;;;;;17.52;14.68;;;;;;;;;;5106232;28;20548;-71
2023/05/08 11:57:34;;;;;;;19.08;16.23;;;;;;;;;;5094500;28;20043;-71
2023/05/08 12:00:07;;;;;;;20.13;16.50;;;;;;;;;;5102324;28;20130;-71
2023/05/08 12:02:37;;;;;;;21.08;16.48;;;;;;;;;;5095414;28;20045;-71
2023/05/08 12:05:04;;;;;;;20.55;16.73;;;;;;;;;;5096201;28;20408;-71
2023/05/08 12:07:30;;;;;;;20.70;17.85;;;;;;;;;;5109273;28;20032;-71
2023/05/08 12:09:56;;;;;;;19.58;15.27;;;;;;;;;;5102124;28;20047;-71
2023/05/08 12:12:22;;;;;;;21.67;16.65;;;;;;;;;;5097422;28;20044;-71
2023/05/08 12:14:49;;;;;;;19.73;16.27;;;;;;;;;;5095669;28;20044;-70
2023/05/08 12:17:19;;;;;;;19.25;15.10;;;;;;;;;;5107219;28;20123;-71
2023/05/08 12:19:45;;;;;;;21.77;17.25;;;;;;;;;;5099154;28;20050;-71
2023/05/08 12:22:11;;;;;;;21.77;16.85;;;;;;;;;;5097130;28;20090;-70
2023/05/08 12:24:38;;;;;;;20.40;16.38;;;;;;;;;;5099958;28;20397;-70
2023/05/08 12:27:04;;;;;;;19.25;16.23;;;;;;;;;;5103582;28;20038;-71
2023/05/08 12:29:35;;;;;;;23.73;17.33;;;;;;;;;;5077213;28;20040;-70
2023/05/08 12:32:01;;;;;;;19.08;16.33;;;;;;;;;;5103650;28;20048;-71
2023/05/08 12:34:27;;;;;;;23.20;20.63;;;;;;;;;;5108874;27;20035;-70
2023/05/08 12:37:03;;;;;;;22.77;17.77;;;;;;;;;;5109699;27;20040;-70
2023/05/08 12:39:35;;;;;;;23.08;18.15;;;;;;;;;;5110496;27;20035;-70
2023/05/08 12:42:01;;;;;;;21.88;16.98;;;;;;;;;;5101426;27;20469;-70
2023/05/08 12:44:27;;;;;;;19.17;15.85;;;;;;;;;;5101669;27;20050;-70
2023/05/08 12:46:54;;;;;;;22.27;19.27;;;;;;;;;;5110005;27;20440;-70
2023/05/08 12:49:25;;;;;;;20.33;16.75;;;;;;;;;;5105508;27;20056;-70
2023/05/08 12:51:51;;;;;;;23.35;18.35;;;;;;;;;;5106730;27;20316;-70
2023/05/08 12:54:17;;;;;;;23.20;17.20;;;;;;;;;;5111537;27;20097;-70
2023/05/08 12:56:44;;;;;;;23.73;17.70;;;;;;;;;;5099940;27;20051;-70
2023/05/08 12:59:10;;;;;;;22.67;18.08;;;;;;;;;;5100479;27;20036;-70
2023/05/08 13:01:36;;;;;;;24.48;18.77;;;;;;;;;;5087184;28;20028;-70
2023/05/08 13:04:06;;;;;;;19.63;16.70;;;;;;;;;;5103438;27;20076;-71
2023/05/08 13:06:32;;;;;;;23.98;18.42;;;;;;;;;;5106096;27;20055;-70
2023/05/08 13:08:58;;;;;;;22.10;17.90;;;;;;;;;;5104206;27;20039;-70
2023/05/08 13:11:33;;;;;;;20.35;16.95;;;;;;;;;;5106059;27;20039;-70
2023/05/08 13:13:59;;;;;;;22.23;17.65;;;;;;;;;;5103569;27;20068;-71
2023/05/08 13:16:25;;;;;;;20.73;17.27;;;;;;;;;;5097421;27;20051;-70
2023/05/08 13:18:51;;;;;;;21.77;18.77;;;;;;;;;;5103607;27;20118;-71
2023/05/08 13:21:17;;;;;;;21.63;17.35;;;;;;;;;;5098512;27;20215;-71
2023/05/08 13:23:44;;;;;;;22.73;18.52;;;;;;;;;;5097308;27;20277;-69
2023/05/08 13:26:10;;;;;;;21.20;18.35;;;;;;;;;;5096138;27;20042;-71
2023/05/08 13:28:36;;;;;;;24.67;18.75;;;;;;;;;;5101151;27;20161;-71
2023/05/08 13:31:02;;;;;;;20.60;18.48;;;;;;;;;;5107557;27;20046;-71
2023/05/08 13:33:28;;;;;;;22.88;19.95;;;;;;;;;;5101748;27;20035;-71
2023/05/08 13:35:55;;;;;;;25.05;20.55;;;;;;;;;;5089044;28;20047;-71
2023/05/08 13:38:21;;;;;;;25.80;21.17;;;;;;;;;;5092924;27;20141;-70
2023/05/08 13:40:47;;;;;;;24.67;20.02;;;;;;;;;;5079316;28;20032;-70
2023/05/08 13:43:13;;;;;;;29.33;21.88;;;;;;;;;;5099616;27;20035;-70
2023/05/08 13:45:39;;;;;;;25.50;19.70;;;;;;;;;;5101998;27;20039;-70
2023/05/08 13:48:05;;;;;;;25.33;20.90;;;;;;;;;;5096678;27;20035;-70
2023/05/08 13:50:32;;;;;;;26.98;21.05;;;;;;;;;;5098179;27;20039;-71
2023/05/08 13:52:58;;;;;;;27.13;20.42;;;;;;;;;;5102666;27;20039;-71
2023/05/08 13:55:24;;;;;;;25.10;21.90;;;;;;;;;;5098643;27;20590;-70
2023/05/08 13:57:50;;;;;;;24.17;19.27;;;;;;;;;;5098065;27;20047;-71
2023/05/08 14:00:17;;;;;;;47.75;24.30;;;;;;;;;;5070602;28;20109;-70
2023/05/08 14:02:43;;;;;;;40.05;23.60;;;;;;;;;;5098452;27;20048;-71
2023/05/08 14:05:09;;;;;;;249.43;51.67;;;;;;;;;;5098415;27;20409;-62
2023/05/08 14:07:35;;;;;;;33.05;21.10;;;;;;;;;;5097851;28;20055;-66
2023/05/08 14:10:02;;;;;;;79.20;31.10;;;;;;;;;;5097150;27;20039;-66
2023/05/08 14:12:28;;;;;;;367.83;66.35;;;;;;;;;;5099863;27;20051;-65
2023/05/08 14:14:54;;;;;;;33.47;22.70;;;;;;;;;;5102105;27;20046;-68
2023/05/08 14:17:20;;;;;;;133.68;35.28;;;;;;;;;;5108358;27;20036;-70